createdAt,value
2019-05-22T00:00:54.982Z,92.1
2019-05-22T00:05:54.695Z,90.4
2019-05-22T00:10:54.420Z,91.1
2019-05-22T00:15:53.886Z,90.4
2019-05-22T00:20:53.250Z,90.9
2019-05-22T00:25:53.081Z,92
2019-05-22T00:30:52.870Z,91.1
2019-05-22T00:35:52.550Z,91.9
2019-05-22T00:40:52.307Z,92
2019-05-22T00:45:52.076Z,92.3
2019-05-22T00:50:51.931Z,92.1
2019-05-22T00:55:51.706Z,91.2
2019-05-22T01:00:51.490Z,90.5
2019-05-22T01:05:51.348Z,91.9
2019-05-22T01:10:50.983Z,92.9
2019-05-22T01:15:50.823Z,91.5
2019-05-22T01:20:50.517Z,91.4
2019-05-22T01:25:50.322Z,92.6
2019-05-22T01:30:49.691Z,91.9
2019-05-22T01:35:49.185Z,92.8
2019-05-22T01:40:49.049Z,91.9
2019-05-22T01:45:48.787Z,91.8
2019-05-22T01:50:48.569Z,91.9
2019-05-22T01:55:48.283Z,91.2
2019-05-22T02:00:47.993Z,91.7
2019-05-22T02:05:47.841Z,92.1
2019-05-22T02:10:47.434Z,92.4
2019-05-22T02:15:47.254Z,92.4
2019-05-22T02:20:46.940Z,91.4
2019-05-22T02:25:46.632Z,91.1
2019-05-22T02:30:46.404Z,91.9
2019-05-22T02:35:46.006Z,92.5
2019-05-22T02:40:45.619Z,91.8
2019-05-22T02:45:45.079Z,91.7
2019-05-22T02:50:44.710Z,91.7
2019-05-22T02:55:44.580Z,91.9
2019-05-22T03:00:44.406Z,92.8
2019-05-22T03:05:43.945Z,91.7
2019-05-22T03:10:43.670Z,93.2
2019-05-22T03:15:43.475Z,92.8
2019-05-22T03:20:43.157Z,92.1
2019-05-22T03:25:43.115Z,91.3
2019-05-22T03:30:42.687Z,90.3
2019-05-22T03:35:42.193Z,91
2019-05-22T03:40:42.187Z,85.6
2019-05-22T03:45:43.426Z,76
2019-05-22T03:50:46.440Z,61.1
2019-05-22T03:55:46.925Z,57.9
2019-05-22T04:00:46.205Z,62.5
2019-05-22T04:05:46.585Z,56.5
2019-05-22T04:10:46.746Z,57
2019-05-22T04:15:44.101Z,72.1
2019-05-22T04:20:42.887Z,76.2
2019-05-22T04:25:45.381Z,64
2019-05-22T04:30:46.054Z,58.2
2019-05-22T04:35:46.798Z,54.8
2019-05-22T04:40:46.839Z,57.2
2019-05-22T04:45:47.501Z,55.8
2019-05-22T04:50:46.941Z,56.1
2019-05-22T04:55:47.108Z,52
2019-05-22T05:00:46.579Z,52.2
2019-05-22T05:05:47.173Z,51.8
2019-05-22T05:10:47.009Z,53.6
2019-05-22T05:15:46.355Z,54.6
2019-05-22T05:20:47.107Z,51.6
2019-05-22T05:25:46.683Z,53.4
2019-05-22T05:30:46.201Z,54.3
2019-05-22T05:35:45.813Z,54
2019-05-22T05:40:45.792Z,53.7
2019-05-22T05:45:45.551Z,55.7
2019-05-22T05:50:46.129Z,54.8
2019-05-22T05:55:46.139Z,56
2019-05-22T06:00:46.406Z,53.4
2019-05-22T06:05:45.791Z,59.6
2019-05-22T06:10:45.348Z,59.9
2019-05-22T06:15:48.172Z,55.3
2019-05-22T06:21:04.586Z,56.3
2019-05-22T06:26:02.058Z,57.9
2019-05-22T06:31:01.182Z,59.8
2019-05-22T06:36:00.680Z,59.8
2019-05-22T06:41:00.168Z,59.1
2019-05-22T06:46:00.331Z,59.4
2019-05-22T06:51:00.098Z,56.8
2019-05-22T06:55:59.221Z,59.7
2019-05-22T07:00:59.316Z,56.3
2019-05-22T07:05:59.508Z,52.6
2019-05-22T07:11:00.110Z,51
2019-05-22T07:16:01.078Z,51.9
2019-05-22T07:21:01.470Z,47.9
2019-05-22T07:26:01.198Z,46.9
2019-05-22T07:30:59.026Z,52
2019-05-22T07:36:13.766Z,54.2
2019-05-22T07:41:13.731Z,48.9
2019-05-22T07:46:14.246Z,52.1
2019-05-22T07:51:13.510Z,47
2019-05-22T07:56:13.431Z,48.1
2019-05-22T08:01:12.310Z,49.1
2019-05-22T08:06:11.995Z,48.9
2019-05-22T08:11:11.535Z,50.7
2019-05-22T08:16:10.581Z,47.9
2019-05-22T08:21:10.779Z,47.2
2019-05-22T08:26:10.286Z,47.5
2019-05-22T08:31:10.387Z,45.2
2019-05-22T08:36:10.884Z,45.5
2019-05-22T08:41:11.476Z,50.4
2019-05-22T08:46:11.256Z,44.4
2019-05-22T08:51:11.777Z,41.7
2019-05-22T08:56:11.580Z,44.3
2019-05-22T09:01:10.782Z,41.9
2019-05-22T09:06:09.644Z,43
2019-05-22T09:11:09.226Z,46.2
2019-05-22T09:16:08.982Z,44.1
2019-05-22T09:21:08.425Z,43.4
2019-05-22T09:26:08.626Z,43.7
2019-05-22T09:31:09.435Z,39.2
2019-05-22T09:36:09.681Z,40.1
2019-05-22T09:41:09.747Z,40.9
2019-05-22T09:46:08.465Z,40.3
2019-05-22T09:51:09.274Z,42.5
2019-05-22T09:56:09.718Z,41.1
2019-05-22T10:01:12.271Z,39.8
2019-05-22T10:06:11.885Z,37.1
2019-05-22T10:11:10.694Z,37.5
2019-05-22T10:16:10.262Z,36.6
2019-05-22T10:21:10.663Z,39.1
2019-05-22T10:26:11.024Z,40.6
2019-05-22T10:31:12.333Z,41.7
2019-05-22T10:36:11.153Z,39.4
2019-05-22T10:41:11.529Z,39.3
2019-05-22T10:46:13.080Z,34.4
2019-05-22T10:51:12.155Z,40.2
2019-05-22T10:56:12.192Z,38.4
2019-05-22T11:01:12.637Z,38
2019-05-22T11:06:12.785Z,41
2019-05-22T11:11:11.694Z,39.1
2019-05-22T11:16:11.740Z,43
2019-05-22T11:21:11.952Z,37.8
2019-05-22T11:26:12.454Z,38.2
2019-05-22T11:31:12.064Z,39.4
2019-05-22T11:36:11.071Z,40.8
2019-05-22T11:41:09.863Z,37.4
2019-05-22T11:46:09.734Z,38.4
2019-05-22T11:51:09.194Z,40.2
2019-05-22T11:56:09.012Z,41.5
2019-05-22T12:01:08.895Z,40.8
2019-05-22T12:06:08.648Z,41
2019-05-22T12:11:07.700Z,40.7
2019-05-22T12:16:07.177Z,42.2
2019-05-22T12:21:06.979Z,39.2
2019-05-22T12:26:06.614Z,41.2
2019-05-22T12:31:06.989Z,38.5
2019-05-22T12:36:06.723Z,38.2
2019-05-22T12:41:06.686Z,41.5
2019-05-22T12:46:05.587Z,39.8
2019-05-22T12:51:05.340Z,40.3
2019-05-22T12:56:05.186Z,36
2019-05-22T13:01:03.696Z,37.2
2019-05-22T13:06:03.450Z,37
2019-05-22T13:11:05.797Z,38.2
2019-05-22T13:16:05.204Z,38
2019-05-22T13:21:03.414Z,37.5
2019-05-22T13:26:02.850Z,39.3
2019-05-22T13:31:02.243Z,37.4
2019-05-22T13:36:02.653Z,39.8
2019-05-22T13:41:02.373Z,37.4
2019-05-22T13:46:02.070Z,39.2
2019-05-22T13:51:01.853Z,39.1
2019-05-22T13:56:01.926Z,40
2019-05-22T14:01:01.310Z,37.2
2019-05-22T14:06:00.963Z,41.4
2019-05-22T14:11:00.882Z,38.3
2019-05-22T14:16:00.623Z,38.4
2019-05-22T14:20:59.813Z,40.4
2019-05-22T14:25:58.988Z,40.9
2019-05-22T14:30:58.668Z,42.8
2019-05-22T14:35:58.635Z,42.1
2019-05-22T14:40:58.392Z,46.5
2019-05-22T14:45:58.441Z,44.9
2019-05-22T14:50:58.519Z,46.1
2019-05-22T14:55:58.021Z,43.7
2019-05-22T15:00:57.775Z,46.2
2019-05-22T15:05:56.968Z,46.6
2019-05-22T15:10:56.759Z,51.6
2019-05-22T15:15:56.611Z,52.9
2019-05-22T15:20:56.327Z,55.9
2019-05-22T15:25:55.946Z,56.3
2019-05-22T15:30:55.794Z,52.1
2019-05-22T15:35:55.476Z,46
2019-05-22T15:40:55.042Z,44.1
2019-05-22T15:45:54.439Z,45.4
2019-05-22T15:50:54.118Z,44
2019-05-22T15:55:53.568Z,48.5
2019-05-22T16:00:53.057Z,47.2
2019-05-22T16:05:52.557Z,41.7
2019-05-22T16:10:52.427Z,45.9
2019-05-22T16:15:51.912Z,42.9
2019-05-22T16:20:51.571Z,43.8
2019-05-22T16:25:51.022Z,48.5
2019-05-22T16:30:50.255Z,49.9
2019-05-22T16:35:49.474Z,52.7
2019-05-22T16:40:48.872Z,53.4
2019-05-22T16:45:48.173Z,54.4
2019-05-22T16:50:47.553Z,54.8
2019-05-22T16:55:47.044Z,56.5
2019-05-22T17:00:46.535Z,52.2
2019-05-22T17:05:45.966Z,57.8
2019-05-22T17:10:45.471Z,61.2
2019-05-22T17:15:45.206Z,60.8
2019-05-22T17:20:44.662Z,62.2
2019-05-22T17:25:44.009Z,62.8
2019-05-22T17:30:43.511Z,64.4
2019-05-22T17:35:43.183Z,64.4
2019-05-22T17:40:42.748Z,66.2
2019-05-22T17:45:42.313Z,67.2
2019-05-22T17:50:41.698Z,64.6
2019-05-22T17:55:41.310Z,66.7
2019-05-22T18:00:40.795Z,66.3
2019-05-22T18:05:40.304Z,66.3
2019-05-22T18:10:41.158Z,65.2
2019-05-22T18:15:40.542Z,69.2
2019-05-22T18:20:44.392Z,65.5
2019-05-22T18:25:43.324Z,67.4
2019-05-22T18:30:42.746Z,67.9
2019-05-22T18:35:42.683Z,70.6
2019-05-22T18:40:41.968Z,69.3
2019-05-22T18:45:41.389Z,70.1
2019-05-22T18:50:40.881Z,74
2019-05-22T18:55:40.522Z,73.1
2019-05-22T19:00:40.063Z,74.3
2019-05-22T19:05:39.765Z,73.6
2019-05-22T19:10:39.400Z,76.3
2019-05-22T19:15:39.077Z,74.4
2019-05-22T19:20:38.575Z,75.5
2019-05-22T19:25:38.243Z,75.8
2019-05-22T19:30:37.760Z,76.4
2019-05-22T19:35:37.269Z,76.9
2019-05-22T19:40:36.580Z,76.7
2019-05-22T19:45:36.088Z,76.9
2019-05-22T19:50:35.883Z,77.2
2019-05-22T19:55:35.479Z,77
2019-05-22T20:00:35.107Z,77.3
2019-05-22T20:05:34.780Z,75.9
2019-05-22T20:10:34.650Z,77.8
2019-05-22T20:15:34.593Z,76.6
2019-05-22T20:20:34.436Z,76.8
2019-05-22T20:25:34.249Z,74.3
2019-05-22T20:30:33.642Z,75.3
2019-05-22T20:35:33.576Z,78.7
2019-05-22T20:40:33.734Z,78
2019-05-22T20:45:33.213Z,78.7
2019-05-22T20:50:32.976Z,79
2019-05-22T20:55:32.529Z,79.3
2019-05-22T21:00:31.796Z,79.7
2019-05-22T21:05:31.624Z,79.8
2019-05-22T21:10:31.378Z,78.9
2019-05-22T21:15:30.926Z,81.4
2019-05-22T21:20:30.579Z,81.4
2019-05-22T21:25:30.588Z,81.5
2019-05-22T21:30:30.302Z,78.4
2019-05-22T21:35:30.342Z,80
2019-05-22T21:40:30.008Z,81
2019-05-22T21:45:29.879Z,79.7
2019-05-22T21:50:29.792Z,80.2
2019-05-22T21:55:29.822Z,79.5
2019-05-22T22:00:29.528Z,78.9
2019-05-22T22:05:29.091Z,80.2
2019-05-22T22:10:28.278Z,79.9
2019-05-22T22:15:27.698Z,81
2019-05-22T22:20:27.568Z,79.9
2019-05-22T22:25:27.244Z,79.3
2019-05-22T22:30:27.008Z,78.8
2019-05-22T22:35:26.773Z,79.1
2019-05-22T22:40:26.368Z,79.1
2019-05-22T22:45:26.183Z,80.9
2019-05-22T22:50:25.824Z,80.9
2019-05-22T22:55:25.365Z,81.6
2019-05-22T23:00:25.099Z,77.8
2019-05-22T23:05:24.841Z,78.8
2019-05-22T23:10:24.307Z,82.1
2019-05-22T23:15:23.858Z,80.5
2019-05-22T23:20:23.632Z,82.3
2019-05-22T23:25:23.145Z,82.9
2019-05-22T23:30:22.902Z,83
2019-05-22T23:35:22.430Z,84.7
2019-05-22T23:40:21.971Z,85
2019-05-22T23:45:21.534Z,84.5
2019-05-22T23:50:21.267Z,83.9
2019-05-22T23:55:21.153Z,84.6
